createdAt,value
2017-11-22T00:33:07.453Z,12.84
2017-11-22T00:33:11.746Z,13.00
2017-11-22T00:33:16.771Z,13.00
2017-11-22T00:33:21.791Z,12.80
2017-11-22T00:33:26.109Z,12.90
2017-11-22T00:33:30.381Z,12.83
2017-11-22T00:33:35.407Z,12.55
2017-11-22T00:33:40.467Z,12.50
2017-11-22T00:33:44.720Z,12.70
2017-11-22T00:33:49.031Z,12.65
2017-11-22T00:33:54.040Z,12.67
2017-11-22T00:33:59.084Z,12.73
2017-11-22T00:34:04.089Z,12.73
2017-11-22T00:34:08.418Z,12.70
2017-11-22T00:34:12.710Z,12.85
2017-11-22T00:34:17.031Z,12.95
2017-11-22T00:34:21.260Z,13.13
2017-11-22T00:34:26.319Z,13.10
2017-11-22T00:34:31.360Z,13.23
2017-11-22T00:34:35.624Z,13.50
2017-11-22T00:34:40.652Z,13.65
2017-11-22T00:34:45.660Z,13.73
2017-11-22T00:34:50.693Z,14.03
2017-11-22T00:34:55.709Z,14.13
2017-11-22T00:35:00.739Z,13.93
2017-11-22T00:35:05.005Z,13.80
2017-11-22T00:35:09.268Z,13.85
2017-11-22T00:35:13.500Z,13.70
2017-11-22T00:35:17.767Z,13.55
2017-11-22T00:35:22.165Z,13.37
2017-11-22T00:35:26.407Z,13.40
2017-11-22T00:35:31.571Z,13.30
2017-11-22T00:35:35.852Z,13.27
2017-11-22T00:35:40.882Z,13.00
2017-11-22T00:35:45.136Z,13.07
2017-11-22T00:35:49.393Z,12.90
2017-11-22T00:35:53.652Z,12.95
2017-11-22T00:35:58.381Z,13.00
2017-11-22T00:36:03.424Z,13.07
2017-11-22T00:36:08.530Z,13.10
2017-11-22T00:36:12.790Z,13.17
2017-11-22T00:36:17.245Z,13.45
2017-11-22T00:36:21.509Z,13.45
2017-11-22T00:36:26.341Z,13.30
2017-11-22T00:36:30.597Z,13.33
2017-11-22T00:36:34.871Z,13.20
2017-11-22T00:36:39.112Z,13.20
2017-11-22T00:36:43.458Z,13.10
2017-11-22T00:36:48.461Z,13.10
2017-11-22T00:36:53.740Z,13.10
2017-11-22T00:36:57.971Z,13.07
2017-11-22T00:37:02.760Z,13.20
2017-11-22T00:37:07.034Z,13.10
2017-11-22T00:37:11.268Z,13.20
2017-11-22T00:37:15.608Z,13.10
2017-11-22T00:37:20.616Z,13.25
2017-11-22T00:37:25.705Z,13.43
2017-11-22T00:37:29.964Z,13.60
2017-11-22T00:37:34.210Z,13.70
2017-11-22T00:37:38.537Z,13.70
2017-11-22T00:37:43.551Z,13.95
2017-11-22T00:37:48.571Z,14.00
2017-11-22T00:37:53.608Z,14.00
2017-11-22T00:37:57.849Z,14.07
2017-11-22T00:38:02.116Z,13.97
2017-11-22T00:38:07.217Z,14.05
2017-11-22T00:38:12.256Z,13.87
2017-11-22T00:38:16.498Z,13.80
2017-11-22T00:38:20.770Z,13.60
2017-11-22T00:38:25.057Z,13.33
2017-11-22T00:38:29.304Z,13.60
2017-11-22T00:38:33.562Z,13.75
2017-11-22T00:38:38.578Z,13.80
2017-11-22T00:38:42.947Z,13.40
2017-11-22T00:38:48.101Z,13.50
2017-11-22T00:38:52.432Z,13.50
2017-11-22T00:38:57.584Z,13.40
2017-11-22T00:39:01.873Z,13.55
2017-11-22T00:39:08.212Z,13.57
2017-11-22T00:39:12.493Z,13.70
2017-11-22T00:39:16.730Z,13.70
2017-11-22T00:39:20.993Z,13.90
2017-11-22T00:39:25.642Z,14.10
2017-11-22T00:40:37.487Z,13.40
2017-11-22T00:40:42.063Z,13.40
2017-11-22T00:40:46.326Z,13.47
2017-11-22T00:40:51.407Z,13.45
2017-11-22T00:40:55.675Z,13.33
2017-11-22T00:41:01.301Z,13.25
2017-11-22T00:41:05.541Z,13.30
2017-11-22T00:41:09.806Z,13.20
2017-11-22T00:41:14.817Z,13.45
2017-11-22T00:41:19.845Z,13.90
2017-11-22T00:41:24.853Z,14.13
2017-11-22T00:41:29.915Z,14.23
2017-11-22T00:41:34.263Z,14.40
2017-11-22T00:41:38.502Z,14.30
2017-11-22T00:41:42.750Z,14.05
2017-11-22T00:41:47.019Z,13.83
2017-11-22T00:41:52.192Z,13.90
2017-11-22T00:41:56.449Z,13.80
2017-11-22T00:42:00.700Z,13.70
2017-11-22T00:42:05.717Z,13.77
2017-11-22T00:42:10.062Z,13.87
2017-11-22T00:42:14.336Z,13.55
2017-11-22T00:42:18.645Z,13.30
2017-11-22T00:42:22.924Z,13.10
2017-11-22T00:42:27.236Z,13.20
2017-11-22T00:42:32.352Z,13.00
2017-11-22T00:42:36.697Z,13.07
2017-11-22T00:42:41.043Z,13.27
2017-11-22T00:42:46.065Z,13.50
2017-11-22T00:42:52.077Z,13.43
2017-11-22T00:42:57.221Z,13.45
2017-11-22T00:43:01.512Z,13.30
2017-11-22T00:43:05.781Z,13.27
2017-11-22T00:43:10.055Z,13.20
2017-11-22T00:43:14.308Z,13.40
2017-11-22T00:43:18.579Z,13.40
2017-11-22T00:43:23.403Z,13.40
2017-11-22T00:43:27.677Z,13.40
2017-11-22T00:43:31.928Z,13.50
2017-11-22T00:43:37.160Z,13.60
2017-11-22T00:43:41.674Z,13.40
2017-11-22T00:43:46.716Z,13.40
2017-11-22T00:43:50.985Z,13.40
2017-11-22T00:43:56.015Z,13.15
2017-11-22T00:44:00.292Z,13.30
2017-11-22T00:44:04.563Z,13.27
2017-11-22T00:44:09.016Z,13.10
2017-11-22T00:44:14.075Z,12.95
2017-11-22T00:44:18.328Z,12.87
2017-11-22T00:44:22.594Z,12.95
2017-11-22T00:44:26.858Z,13.05
2017-11-22T00:44:31.112Z,13.10
2017-11-22T00:44:35.376Z,13.20
2017-11-22T00:44:39.628Z,13.40
2017-11-22T00:44:44.652Z,13.35
2017-11-22T00:44:49.746Z,13.30
2017-11-22T00:44:54.021Z,13.47
2017-11-22T00:44:58.288Z,13.50
2017-11-22T00:45:02.556Z,13.50
2017-11-22T00:45:06.814Z,13.65
2017-11-22T00:45:11.084Z,13.90
2017-11-22T00:45:16.113Z,14.05
2017-11-22T00:45:20.360Z,14.00
2017-11-22T00:45:24.625Z,13.75
2017-11-22T00:45:28.915Z,13.70
2017-11-22T00:45:33.969Z,13.53
2017-11-22T00:45:38.293Z,13.50
2017-11-22T00:45:42.540Z,13.40
2017-11-22T00:45:46.795Z,13.50
2017-11-22T00:45:51.058Z,13.60
2017-11-22T00:45:55.306Z,13.75
2017-11-22T00:46:00.352Z,13.80
2017-11-22T00:46:05.381Z,13.80
2017-11-22T00:46:09.629Z,13.80
2017-11-22T00:46:13.914Z,13.77
2017-11-22T00:46:18.173Z,13.80
2017-11-22T00:46:22.434Z,13.85
2017-11-22T00:46:26.698Z,13.80
2017-11-22T00:46:30.985Z,13.70
2017-11-22T00:46:35.247Z,13.80
2017-11-22T00:46:39.640Z,13.65
2017-11-22T00:46:44.649Z,13.43
2017-11-22T00:46:48.919Z,13.20
2017-11-22T00:46:53.186Z,13.05
2017-11-22T00:46:58.208Z,12.70
2017-11-22T00:47:03.242Z,12.80
2017-11-22T00:47:08.259Z,12.77
2017-11-22T00:47:12.532Z,12.63
2017-11-22T00:47:18.331Z,12.60
2017-11-22T00:47:22.603Z,12.60
2017-11-22T00:47:26.870Z,12.60
2017-11-22T00:47:31.881Z,12.70
2017-11-22T00:47:36.571Z,12.60
2017-11-22T00:47:40.881Z,12.70
2017-11-22T00:47:45.175Z,12.80
2017-11-22T00:47:49.495Z,12.80
2017-11-22T00:47:53.824Z,12.90
2017-11-22T00:47:58.836Z,12.90
2017-11-22T00:48:03.102Z,12.77
2017-11-22T00:48:07.354Z,12.80
2017-11-22T00:48:11.960Z,12.95
2017-11-22T00:48:16.212Z,12.93
2017-11-22T00:48:20.484Z,12.90
2017-11-22T00:48:24.721Z,12.80
2017-11-22T00:48:28.969Z,12.70
2017-11-22T00:48:33.250Z,12.70
2017-11-22T00:48:38.281Z,12.70
2017-11-22T00:48:42.533Z,12.70
2017-11-22T00:48:46.784Z,12.70
2017-11-22T00:48:51.048Z,12.70
2017-11-22T00:48:55.322Z,12.70
2017-11-22T00:48:59.585Z,12.70
2017-11-22T00:49:03.829Z,12.60
2017-11-22T00:49:08.101Z,12.60
2017-11-22T00:49:12.344Z,12.45
2017-11-22T00:49:16.603Z,12.40
2017-11-22T00:49:20.856Z,12.60
2017-11-22T00:49:25.928Z,12.60
2017-11-22T00:49:30.182Z,12.67
2017-11-22T00:49:35.191Z,12.60
2017-11-22T00:49:40.230Z,12.43
2017-11-22T00:49:44.476Z,12.50
2017-11-22T00:49:48.742Z,12.63
2017-11-22T00:49:53.012Z,12.60
2017-11-22T00:49:58.035Z,12.55
2017-11-22T00:50:03.262Z,12.47
2017-11-22T00:50:08.281Z,12.63
2017-11-22T00:50:13.330Z,12.63
2017-11-22T00:50:17.574Z,12.63
2017-11-22T00:50:21.832Z,12.55
2017-11-22T00:50:26.081Z,12.65
2017-11-22T00:50:30.348Z,12.45
2017-11-22T00:50:34.607Z,12.43
2017-11-22T00:50:38.897Z,12.70
2017-11-22T00:50:43.927Z,12.80
2017-11-22T00:50:48.362Z,12.67
2017-11-22T00:50:52.625Z,12.80
2017-11-22T00:50:56.910Z,12.90
2017-11-22T00:51:01.175Z,12.95
2017-11-22T00:51:05.960Z,12.87
2017-11-22T00:51:10.228Z,12.90
2017-11-22T00:51:15.282Z,12.80
2017-11-22T00:51:19.549Z,13.00
2017-11-22T00:51:23.806Z,13.00
2017-11-22T00:51:28.064Z,13.10
2017-11-22T00:51:33.069Z,13.30
2017-11-22T00:51:37.368Z,13.23
2017-11-22T00:51:41.619Z,13.15
2017-11-22T00:51:45.884Z,13.25
2017-11-22T00:51:50.159Z,13.15
2017-11-22T00:51:54.413Z,12.90
2017-11-22T00:51:58.698Z,12.95
2017-11-22T00:52:02.945Z,13.10
2017-11-22T00:52:07.219Z,13.10
2017-11-22T00:52:11.478Z,13.30
2017-11-22T00:52:16.488Z,13.25
2017-11-22T00:52:20.763Z,13.10
2017-11-22T00:52:25.006Z,13.23
2017-11-22T00:52:29.264Z,13.20
2017-11-22T00:52:33.518Z,13.20
2017-11-22T00:52:38.522Z,13.17
2017-11-22T00:52:42.777Z,13.10
2017-11-22T00:52:47.056Z,12.90
2017-11-22T00:52:51.315Z,13.00
2017-11-22T00:52:55.577Z,13.15
2017-11-22T00:52:59.826Z,13.23
2017-11-22T00:53:04.091Z,13.10
2017-11-22T00:53:08.338Z,13.10
2017-11-22T00:53:12.596Z,13.15
2017-11-22T00:53:16.878Z,13.37
2017-11-22T00:53:21.153Z,13.55
2017-11-22T00:53:25.406Z,13.60
2017-11-22T00:53:29.658Z,13.70
2017-11-22T00:53:33.911Z,13.80
2017-11-22T00:54:46.334Z,14.00
2017-11-22T00:54:50.598Z,14.10
2017-11-22T00:54:54.870Z,14.05
2017-11-22T00:54:59.936Z,13.90
2017-11-22T00:55:04.956Z,13.80
2017-11-22T00:55:09.960Z,13.68
2017-11-22T00:55:14.999Z,13.50
2017-11-22T00:55:20.039Z,13.47
2017-11-22T00:55:24.317Z,13.30
2017-11-22T00:55:29.338Z,13.25
2017-11-22T00:55:34.382Z,13.17
2017-11-22T00:55:38.642Z,12.97
2017-11-22T00:55:42.882Z,12.90
2017-11-22T00:55:47.146Z,12.83
2017-11-22T00:55:52.172Z,12.70
2017-11-22T00:55:57.192Z,12.77
2017-11-22T00:56:02.227Z,12.90
2017-11-22T00:56:06.489Z,12.93
2017-11-22T00:56:10.734Z,12.95
2017-11-22T00:56:14.999Z,12.90
2017-11-22T00:56:19.251Z,12.90
2017-11-22T00:56:23.520Z,12.75
2017-11-22T00:56:27.985Z,12.60
2017-11-22T00:56:32.244Z,12.70
2017-11-22T00:56:36.504Z,12.80
2017-11-22T00:56:41.525Z,12.80
2017-11-22T00:56:46.535Z,12.80
2017-11-22T00:56:50.785Z,12.93
2017-11-22T00:56:55.048Z,13.20
2017-11-22T00:57:00.064Z,13.20
2017-11-22T00:57:05.077Z,13.17
2017-11-22T00:57:10.093Z,13.03
2017-11-22T00:57:15.104Z,13.23
2017-11-22T00:57:19.366Z,13.17
2017-11-22T00:57:23.630Z,13.37
2017-11-22T00:57:28.651Z,13.40
2017-11-22T00:57:32.897Z,13.50
2017-11-22T00:57:37.168Z,13.40
2017-11-22T00:57:41.408Z,13.30
2017-11-22T00:57:46.422Z,13.13
2017-11-22T00:57:50.685Z,12.97
2017-11-22T00:57:54.948Z,12.75
2017-11-22T00:57:59.208Z,12.70
2017-11-22T00:58:03.472Z,12.77
2017-11-22T00:58:08.511Z,12.75
2017-11-22T00:58:12.782Z,12.67
2017-11-22T00:58:17.790Z,12.65
2017-11-22T00:58:22.822Z,12.60
2017-11-22T00:58:27.838Z,12.60
2017-11-22T00:58:32.863Z,12.70
2017-11-22T00:58:37.920Z,12.90
2017-11-22T00:58:42.176Z,13.10
2017-11-22T00:58:47.203Z,13.40
2017-11-22T00:58:51.459Z,13.60
2017-11-22T00:58:55.713Z,13.70
2017-11-22T00:58:59.960Z,13.80
2017-11-22T00:59:04.250Z,13.70
2017-11-22T00:59:08.500Z,13.95
2017-11-22T00:59:12.743Z,13.90
2017-11-22T00:59:16.997Z,13.75
2017-11-22T00:59:22.011Z,13.70
2017-11-22T00:59:27.090Z,13.53
2017-11-22T00:59:31.333Z,13.37
2017-11-22T00:59:36.360Z,13.10
2017-11-22T00:59:40.628Z,12.97
2017-11-22T00:59:44.889Z,12.80
2017-11-22T00:59:49.144Z,12.90
2017-11-22T00:59:54.183Z,12.90
2017-11-22T00:59:58.425Z,12.80
2017-11-22T01:00:02.687Z,12.80
2017-11-22T01:00:06.968Z,12.70
2017-11-22T01:00:11.980Z,12.90
2017-11-22T01:00:16.249Z,13.00
2017-11-22T01:00:20.513Z,13.10
2017-11-22T01:00:24.788Z,13.20
2017-11-22T01:00:29.062Z,13.25
2017-11-22T01:00:34.120Z,13.50
2017-11-22T01:00:39.144Z,13.63
2017-11-22T01:00:43.390Z,13.57
2017-11-22T01:00:47.675Z,13.37
2017-11-22T01:00:51.943Z,13.30
2017-11-22T01:00:56.191Z,13.10
2017-11-22T01:01:00.464Z,13.10
2017-11-22T01:01:04.725Z,13.10
2017-11-22T01:01:09.758Z,13.00
2017-11-22T01:01:14.019Z,13.10
2017-11-22T01:01:18.292Z,13.10
2017-11-22T01:01:22.560Z,13.23
2017-11-22T01:01:26.817Z,13.30
2017-11-22T01:01:31.072Z,13.15
2017-11-22T01:01:35.372Z,13.15
2017-11-22T01:01:39.634Z,13.23
2017-11-22T01:01:43.878Z,13.50
2017-11-22T01:01:48.139Z,13.50
2017-11-22T01:01:53.178Z,13.43
2017-11-22T01:01:58.219Z,13.70
2017-11-22T01:02:02.474Z,13.70
2017-11-22T01:02:07.524Z,13.60
2017-11-22T01:02:12.679Z,13.57
2017-11-22T01:02:16.928Z,13.50
2017-11-22T01:02:21.969Z,13.23
2017-11-22T01:02:26.251Z,13.10
2017-11-22T01:02:30.511Z,13.00
2017-11-22T01:02:34.780Z,12.95
2017-11-22T01:02:39.033Z,12.75
2017-11-22T01:02:44.070Z,12.70
2017-11-22T01:02:48.322Z,12.67
2017-11-22T01:02:52.588Z,12.70
2017-11-22T01:02:56.884Z,12.50
2017-11-22T01:03:01.150Z,12.50
2017-11-22T01:03:05.418Z,12.45
2017-11-22T01:03:09.682Z,12.40
2017-11-22T01:03:13.965Z,12.40
2017-11-22T01:03:18.985Z,12.70
2017-11-22T01:03:24.012Z,12.83
2017-11-22T01:03:29.047Z,13.07
2017-11-22T01:03:51.034Z,12.30
2017-11-22T01:03:56.048Z,13.13
2017-11-22T01:04:01.072Z,13.33
2017-11-22T01:04:05.338Z,13.23
2017-11-22T01:04:09.603Z,13.43
2017-11-22T01:04:13.869Z,13.75
2017-11-22T01:04:18.882Z,13.60
2017-11-22T01:04:23.140Z,13.43
2017-11-22T01:04:27.408Z,13.30
2017-11-22T01:04:31.663Z,13.50
2017-11-22T01:04:35.928Z,13.50
2017-11-22T01:04:40.184Z,13.40
2017-11-22T01:04:45.221Z,13.40
2017-11-22T01:04:49.489Z,13.50
2017-11-22T01:04:53.746Z,13.45
2017-11-22T01:04:58.011Z,13.40
2017-11-22T01:05:03.023Z,13.43
2017-11-22T01:05:07.295Z,13.40
2017-11-22T01:05:11.537Z,13.35
2017-11-22T01:05:15.793Z,13.20
2017-11-22T01:05:20.073Z,13.27
2017-11-22T01:05:24.353Z,13.30
2017-11-22T01:05:28.593Z,13.40
2017-11-22T01:05:32.846Z,13.20
2017-11-22T01:05:37.117Z,13.20
2017-11-22T01:05:41.369Z,13.00
2017-11-22T01:05:45.626Z,12.75
2017-11-22T01:05:50.645Z,12.70
2017-11-22T01:05:55.687Z,12.70
2017-11-22T01:05:59.939Z,12.63
2017-11-22T01:06:04.211Z,12.70
2017-11-22T01:06:08.487Z,12.65
2017-11-22T01:06:12.745Z,12.80
2017-11-22T01:06:17.024Z,12.83
2017-11-22T01:06:21.266Z,12.90
2017-11-22T01:06:26.300Z,12.75
2017-11-22T01:06:31.308Z,12.53
2017-11-22T01:06:36.334Z,12.43
2017-11-22T01:06:41.356Z,12.60
2017-11-22T01:06:46.383Z,12.70
2017-11-22T01:06:51.418Z,12.57
2017-11-22T01:06:55.695Z,12.60
2017-11-22T01:07:00.718Z,12.50
2017-11-22T01:07:04.960Z,12.30
2017-11-22T01:07:09.216Z,12.20
2017-11-22T01:07:13.487Z,12.10
2017-11-22T01:07:17.741Z,12.20
2017-11-22T01:07:22.015Z,12.50
2017-11-22T01:07:26.261Z,12.60
2017-11-22T01:07:30.503Z,12.83
2017-11-22T01:07:35.524Z,12.95
2017-11-22T01:07:40.568Z,12.97
2017-11-22T01:07:44.841Z,13.03
2017-11-22T01:07:49.864Z,13.10
2017-11-22T01:07:54.887Z,12.97
2017-11-22T01:07:59.138Z,12.90
2017-11-22T01:08:03.410Z,13.00
2017-11-22T01:08:07.675Z,12.95
2017-11-22T01:08:12.691Z,13.00
2017-11-22T01:08:17.710Z,12.80
2017-11-22T01:08:22.739Z,12.53
2017-11-22T01:08:27.788Z,12.43
2017-11-22T01:08:32.043Z,12.40
2017-11-22T01:08:37.074Z,12.27
2017-11-22T01:08:42.096Z,12.20
2017-11-22T01:08:47.129Z,12.17
2017-11-22T01:08:51.416Z,12.10
2017-11-22T01:08:56.439Z,12.15
2017-11-22T01:09:00.689Z,12.10
2017-11-22T01:09:04.955Z,12.10
2017-11-22T01:09:09.235Z,12.13
2017-11-22T01:09:14.262Z,12.00
2017-11-22T01:09:18.509Z,12.00
2017-11-22T01:09:22.767Z,12.05
2017-11-22T01:09:27.013Z,12.07
2017-11-22T01:09:31.297Z,11.90
2017-11-22T01:09:35.555Z,11.90
2017-11-22T01:09:40.568Z,12.00
2017-11-22T01:09:45.608Z,12.00
2017-11-22T01:09:49.862Z,12.25
2017-11-22T01:09:54.125Z,12.30
2017-11-22T01:09:58.373Z,12.20
2017-11-22T01:10:02.631Z,12.30
2017-11-22T01:10:06.895Z,12.40
2017-11-22T01:10:11.167Z,12.40
2017-11-22T01:10:15.433Z,12.45
2017-11-22T01:10:19.713Z,12.45
2017-11-22T01:10:23.987Z,12.37
2017-11-22T01:10:29.019Z,12.30
2017-11-22T01:10:33.277Z,12.40
2017-11-22T01:10:37.518Z,12.40
2017-11-22T01:10:41.800Z,12.40
2017-11-22T01:10:46.831Z,12.30
2017-11-22T01:10:51.857Z,12.17
2017-11-22T01:10:56.115Z,12.03
2017-11-22T01:11:00.376Z,12.05
2017-11-22T01:11:04.638Z,11.97
2017-11-22T01:11:09.685Z,11.80
2017-11-22T01:11:13.953Z,11.70
2017-11-22T01:11:18.207Z,11.75
2017-11-22T01:11:22.462Z,11.73
2017-11-22T01:11:27.496Z,11.80
2017-11-22T01:11:31.758Z,11.90
2017-11-22T01:11:36.019Z,11.80
2017-11-22T01:11:40.280Z,11.80
2017-11-22T01:11:45.305Z,11.80
2017-11-22T01:11:50.338Z,11.80
2017-11-22T01:11:54.578Z,11.90
2017-11-22T01:11:58.818Z,11.90
2017-11-22T01:12:03.834Z,11.90
2017-11-22T01:12:08.858Z,11.90
2017-11-22T01:12:13.911Z,12.03
2017-11-22T01:12:18.179Z,12.13
2017-11-22T01:12:23.189Z,12.37
2017-11-22T01:12:28.217Z,12.27
2017-11-22T01:12:33.262Z,12.20
2017-11-22T01:12:37.506Z,12.13
2017-11-22T01:12:41.765Z,12.10
2017-11-22T01:12:46.049Z,12.10
2017-11-22T01:12:50.301Z,12.03
2017-11-22T01:12:54.541Z,12.15
2017-11-22T01:12:58.795Z,12.35
2017-11-22T01:13:03.041Z,12.47
2017-11-22T01:13:07.314Z,12.40
2017-11-22T01:13:11.577Z,12.60
2017-11-22T01:13:15.820Z,12.45
2017-11-22T01:13:20.851Z,12.07
2017-11-22T01:13:25.890Z,11.83
2017-11-22T01:13:30.152Z,11.90
2017-11-22T01:13:34.475Z,12.15
2017-11-22T01:13:39.485Z,12.20
2017-11-22T01:13:44.515Z,12.17
2017-11-22T01:13:49.543Z,12.20
2017-11-22T01:13:53.795Z,12.27
2017-11-22T01:13:58.088Z,12.30
2017-11-22T01:14:02.344Z,12.20
2017-11-22T01:14:07.370Z,12.35
2017-11-22T01:14:11.672Z,12.20
2017-11-22T01:14:15.938Z,12.37
2017-11-22T01:14:20.969Z,12.60
2017-11-22T01:14:25.988Z,12.70
2017-11-22T01:14:30.255Z,12.70
2017-11-22T01:14:35.286Z,12.60
2017-11-22T01:14:40.300Z,12.60
2017-11-22T01:14:44.548Z,12.68
2017-11-22T01:14:48.840Z,12.70
2017-11-22T01:14:53.108Z,12.75
2017-11-22T01:14:57.390Z,12.80
2017-11-22T01:15:01.659Z,12.87
2017-11-22T01:15:05.905Z,13.00
2017-11-22T01:15:10.169Z,13.00
2017-11-22T01:15:15.205Z,12.87
2017-11-22T01:15:19.495Z,12.70
2017-11-22T01:15:23.756Z,12.70
2017-11-22T01:15:28.001Z,12.70
2017-11-22T01:15:32.271Z,12.70
2017-11-22T01:15:36.531Z,12.83
2017-11-22T01:15:41.565Z,12.80
2017-11-22T01:15:46.598Z,12.80
2017-11-22T01:15:51.622Z,12.80
2017-11-22T01:15:55.876Z,12.63
2017-11-22T01:16:00.151Z,12.50
2017-11-22T01:16:04.409Z,12.33
2017-11-22T01:16:08.674Z,12.40
2017-11-22T01:16:12.930Z,12.40
2017-11-22T01:16:17.204Z,12.40
2017-11-22T01:16:21.476Z,12.40
2017-11-22T01:16:25.730Z,12.40
2017-11-22T01:16:29.973Z,12.50
2017-11-22T01:16:34.249Z,12.60
2017-11-22T01:16:38.507Z,12.50
2017-11-22T01:16:43.525Z,12.65
2017-11-22T01:16:48.547Z,12.90
2017-11-22T01:16:52.801Z,13.10
2017-11-22T01:16:57.062Z,13.23
2017-11-22T01:17:01.323Z,13.30
2017-11-22T01:17:05.566Z,13.40
2017-11-22T01:17:09.831Z,13.50
2017-11-22T01:17:14.863Z,13.60
2017-11-22T01:17:19.877Z,13.80
2017-11-22T01:17:24.897Z,13.70
2017-11-22T01:17:29.146Z,13.60
2017-11-22T01:17:33.394Z,13.50
2017-11-22T01:17:37.669Z,13.50
2017-11-22T01:17:41.921Z,13.40
2017-11-22T01:17:46.203Z,13.15
2017-11-22T01:17:51.245Z,13.05
2017-11-22T01:17:55.492Z,13.10
2017-11-22T01:17:59.740Z,13.27
2017-11-22T01:18:04.001Z,13.15
2017-11-22T01:18:08.259Z,12.90
2017-11-22T01:18:12.512Z,12.85
2017-11-22T01:18:17.538Z,12.53
2017-11-22T01:18:21.846Z,12.47
2017-11-22T01:18:26.090Z,12.70
2017-11-22T01:18:30.356Z,12.70
2017-11-22T01:18:34.620Z,12.70
2017-11-22T01:18:38.873Z,12.85
2017-11-22T01:18:43.144Z,13.00
2017-11-22T01:18:47.401Z,13.10
2017-11-22T01:18:51.664Z,13.03
2017-11-22T01:18:55.924Z,13.10
2017-11-22T01:19:00.950Z,12.95
2017-11-22T01:19:05.215Z,12.97
2017-11-22T01:19:09.469Z,13.13
2017-11-22T01:19:13.724Z,13.30
2017-11-22T01:19:17.977Z,13.50
2017-11-22T01:19:22.221Z,13.65
2017-11-22T01:19:26.503Z,13.60
2017-11-22T01:19:30.762Z,13.50
2017-11-22T01:19:35.786Z,13.40
2017-11-22T01:19:40.045Z,13.20
2017-11-22T01:19:44.302Z,13.20
2017-11-22T01:19:48.549Z,13.55
2017-11-22T01:19:52.812Z,13.55
2017-11-22T01:19:57.069Z,13.30
2017-11-22T01:20:02.087Z,13.40
2017-11-22T01:20:07.112Z,13.50
2017-11-22T01:20:12.173Z,13.40
2017-11-22T01:20:16.426Z,13.47
2017-11-22T01:20:21.464Z,13.50
2017-11-22T01:20:25.731Z,13.43
2017-11-22T01:20:29.976Z,13.40
2017-11-22T01:20:34.255Z,13.40
2017-11-22T01:20:39.268Z,13.50
2017-11-22T01:20:44.289Z,13.47
2017-11-22T01:20:49.310Z,13.03
2017-11-22T01:20:53.577Z,13.07
2017-11-22T01:20:57.854Z,13.05
2017-11-22T01:21:02.120Z,13.00
2017-11-22T01:21:06.380Z,13.05
2017-11-22T01:21:10.651Z,13.10
2017-11-22T01:21:14.905Z,13.00
2017-11-22T01:21:19.943Z,12.90
2017-11-22T01:21:24.195Z,12.87
2017-11-22T01:21:28.459Z,12.85
2017-11-22T01:21:32.701Z,13.07
2017-11-22T01:21:36.939Z,13.10
2017-11-22T01:21:41.211Z,13.10
2017-11-22T01:21:45.491Z,13.35
2017-11-22T01:21:49.732Z,13.40
2017-11-22T01:21:53.983Z,13.20
2017-11-22T01:21:58.248Z,13.15
2017-11-22T01:22:02.494Z,13.10
2017-11-22T01:22:06.760Z,12.97
2017-11-22T01:22:11.001Z,12.90
2017-11-22T01:22:15.262Z,12.80
2017-11-22T01:22:19.532Z,12.73
2017-11-22T01:22:24.560Z,12.55
2017-11-22T01:22:28.804Z,12.53
2017-11-22T01:22:33.076Z,12.35
2017-11-22T01:22:37.337Z,12.40
2017-11-22T01:22:42.390Z,12.30
2017-11-22T01:22:46.656Z,12.20
2017-11-22T01:22:51.673Z,12.00
2017-11-22T01:22:56.698Z,12.00
2017-11-22T01:23:01.705Z,12.00
2017-11-22T01:23:05.975Z,12.00
2017-11-22T01:23:10.251Z,12.00
2017-11-22T01:23:14.516Z,12.10
2017-11-22T01:23:19.529Z,12.25
2017-11-22T01:23:24.564Z,12.33
2017-11-22T01:23:28.824Z,12.43
2017-11-22T01:23:33.088Z,12.50
2017-11-22T01:23:37.340Z,12.40
2017-11-22T01:23:41.607Z,12.80
2017-11-22T01:23:45.866Z,12.75
2017-11-22T01:23:50.877Z,12.80
2017-11-22T01:23:55.150Z,12.90
2017-11-22T01:23:59.393Z,12.90
2017-11-22T01:24:03.651Z,12.90
2017-11-22T01:24:07.905Z,12.90
2017-11-22T01:24:12.180Z,12.87
2017-11-22T01:24:17.212Z,12.80
2017-11-22T01:24:21.456Z,12.77
2017-11-22T01:24:25.704Z,12.95
2017-11-22T01:24:30.725Z,13.00
2017-11-22T01:24:34.979Z,13.00
2017-11-22T01:24:39.230Z,12.75
2017-11-22T01:24:43.487Z,12.60
2017-11-22T01:24:47.742Z,12.60
2017-11-22T01:24:52.051Z,12.70
2017-11-22T01:24:57.067Z,12.75
2017-11-22T01:25:01.317Z,12.80
2017-11-22T01:25:05.579Z,12.80
2017-11-22T01:25:09.858Z,13.00
2017-11-22T01:25:14.098Z,12.90
2017-11-22T01:25:18.349Z,12.90
2017-11-22T01:25:22.618Z,12.90
2017-11-22T01:25:27.738Z,12.70
2017-11-22T01:25:31.988Z,12.77
2017-11-22T01:25:36.256Z,12.75
2017-11-22T01:25:41.262Z,12.85
2017-11-22T01:25:46.311Z,12.77
2017-11-22T01:25:50.591Z,12.70
2017-11-22T01:25:54.882Z,12.60
2017-11-22T01:25:59.906Z,12.60
2017-11-22T01:26:04.931Z,12.60
2017-11-22T01:26:09.942Z,12.27
2017-11-22T01:26:14.957Z,12.30
2017-11-22T01:26:19.975Z,12.20
2017-11-22T01:26:24.994Z,12.17
2017-11-22T01:26:30.025Z,12.10
2017-11-22T01:26:35.145Z,11.90
2017-11-22T01:26:40.154Z,11.90
2017-11-22T01:26:45.215Z,11.90
2017-11-22T01:26:49.488Z,11.90
2017-11-22T01:26:54.507Z,11.90
2017-11-22T01:26:58.802Z,11.87
2017-11-22T01:27:03.827Z,11.75
2017-11-22T01:27:08.837Z,12.10
2017-11-22T01:27:13.856Z,12.27
2017-11-22T01:27:18.904Z,12.13
2017-11-22T01:27:23.156Z,12.20
2017-11-22T01:27:27.453Z,12.20
2017-11-22T01:27:31.704Z,12.40
2017-11-22T01:27:35.968Z,12.30
2017-11-22T01:27:40.219Z,12.27
2017-11-22T01:27:44.475Z,12.15
2017-11-22T01:27:49.503Z,12.20
2017-11-22T01:27:53.748Z,12.13
2017-11-22T01:27:58.001Z,12.07
2017-11-22T01:28:02.277Z,12.05
2017-11-22T01:28:06.536Z,12.00
2017-11-22T01:28:10.783Z,11.90
2017-11-22T01:28:15.798Z,12.00
2017-11-22T01:28:20.809Z,12.00
2017-11-22T01:28:25.089Z,12.10
2017-11-22T01:28:29.355Z,12.00
2017-11-22T01:28:33.604Z,12.25
2017-11-22T01:28:37.878Z,12.30
2017-11-22T01:28:42.124Z,12.30
2017-11-22T01:28:47.160Z,12.55
2017-11-22T01:28:51.433Z,12.70
2017-11-22T01:28:55.676Z,12.77
2017-11-22T01:28:59.939Z,12.60
2017-11-22T01:29:04.949Z,12.60
2017-11-22T01:29:09.212Z,12.53
2017-11-22T01:29:13.476Z,12.40
2017-11-22T01:29:18.516Z,12.40
2017-11-22T01:29:22.796Z,12.40
2017-11-22T01:29:27.058Z,12.50
2017-11-22T01:29:32.137Z,12.45
2017-11-22T01:29:36.393Z,12.20
2017-11-22T01:29:40.666Z,12.40
2017-11-22T01:29:44.916Z,12.50
2017-11-22T01:29:49.174Z,12.30
2017-11-22T01:29:53.445Z,12.27
2017-11-22T01:29:57.690Z,12.45
2017-11-22T01:30:01.960Z,12.70
2017-11-22T01:30:06.198Z,12.70
2017-11-22T01:30:11.213Z,12.70
2017-11-22T01:30:16.244Z,12.63
2017-11-22T01:30:20.509Z,12.90
2017-11-22T01:30:24.790Z,12.75
2017-11-22T01:30:29.043Z,12.70
2017-11-22T01:30:34.052Z,12.80
2017-11-22T01:30:38.313Z,12.67
2017-11-22T01:30:42.570Z,12.55
2017-11-22T01:30:47.585Z,12.55
2017-11-22T01:30:52.629Z,13.03
2017-11-22T01:30:56.860Z,13.00
2017-11-22T01:31:01.104Z,13.00
2017-11-22T01:31:05.362Z,13.10
2017-11-22T01:31:09.608Z,13.15
2017-11-22T01:31:13.860Z,13.40
2017-11-22T01:31:18.118Z,13.43
2017-11-22T01:31:22.382Z,13.50
2017-11-22T01:31:26.630Z,13.60
2017-11-22T01:31:30.894Z,13.60
2017-11-22T01:31:35.155Z,13.77
2017-11-22T01:31:39.413Z,14.00
2017-11-22T01:31:43.679Z,14.00
2017-11-22T01:31:47.942Z,13.70
2017-11-22T01:31:52.221Z,13.30
2017-11-22T01:31:56.464Z,13.35
2017-11-22T01:32:00.713Z,13.30
2017-11-22T01:32:05.003Z,13.30
2017-11-22T01:32:09.242Z,13.30
2017-11-22T01:32:13.507Z,13.25
2017-11-22T01:32:18.525Z,13.17
2017-11-22T01:32:23.532Z,13.03
2017-11-22T01:32:28.554Z,13.07
2017-11-22T01:32:33.565Z,13.03
2017-11-22T01:32:38.547Z,12.87
2017-11-22T01:32:42.800Z,12.83
2017-11-22T01:32:47.073Z,12.80
2017-11-22T01:32:51.321Z,12.70
2017-11-22T01:32:55.592Z,12.60
2017-11-22T01:33:00.609Z,12.45
2017-11-22T01:33:05.662Z,12.40
2017-11-22T01:33:09.908Z,12.37
2017-11-22T01:33:14.957Z,12.30
2017-11-22T01:33:19.978Z,12.10
2017-11-22T01:33:24.250Z,12.07
2017-11-22T01:33:28.516Z,11.83
2017-11-22T01:33:32.769Z,11.75
2017-11-22T01:33:37.806Z,11.95
2017-11-22T01:33:42.089Z,12.03
2017-11-22T01:33:47.120Z,12.30